sensor_id;sensor_type;location;lat;lon;timestamp;P1;durP1;ratioP1;P2;durP2;ratioP2
15271;SDS011;7737;51.578;7.268;2023-08-06T00:01:37;11.88;;;10.68;;
15271;SDS011;7737;51.578;7.268;2023-08-06T00:04:03;11.18;;;10.07;;
15271;SDS011;7737;51.578;7.268;2023-08-06T00:06:31;12.55;;;10.95;;
15271;SDS011;7737;51.578;7.268;2023-08-06T00:08:58;10.32;;;9.38;;
15271;SDS011;7737;51.578;7.268;2023-08-06T00:11:24;13.15;;;11.18;;
15271;SDS011;7737;51.578;7.268;2023-08-06T00:13:51;11.90;;;10.70;;
15271;SDS011;7737;51.578;7.268;2023-08-06T00:16:17;11.90;;;9.45;;
15271;SDS011;7737;51.578;7.268;2023-08-06T00:18:44;10.82;;;9.60;;
15271;SDS011;7737;51.578;7.268;2023-08-06T00:21:10;10.80;;;9.70;;
15271;SDS011;7737;51.578;7.268;2023-08-06T00:23:39;12.57;;;10.50;;
15271;SDS011;7737;51.578;7.268;2023-08-06T00:26:06;12.82;;;11.50;;
15271;SDS011;7737;51.578;7.268;2023-08-06T00:28:32;13.05;;;11.75;;
15271;SDS011;7737;51.578;7.268;2023-08-06T00:30:59;15.65;;;12.13;;
15271;SDS011;7737;51.578;7.268;2023-08-06T00:33:25;14.40;;;12.20;;
15271;SDS011;7737;51.578;7.268;2023-08-06T00:35:52;13.57;;;12.27;;
15271;SDS011;7737;51.578;7.268;2023-08-06T00:38:19;11.40;;;9.93;;
15271;SDS011;7737;51.578;7.268;2023-08-06T00:40:47;13.50;;;12.15;;
15271;SDS011;7737;51.578;7.268;2023-08-06T00:43:13;14.32;;;12.93;;
15271;SDS011;7737;51.578;7.268;2023-08-06T00:45:40;14.57;;;12.15;;
15271;SDS011;7737;51.578;7.268;2023-08-06T00:48:06;12.82;;;11.60;;
15271;SDS011;7737;51.578;7.268;2023-08-06T00:50:33;13.40;;;12.05;;
15271;SDS011;7737;51.578;7.268;2023-08-06T00:53:00;14.18;;;12.55;;
15271;SDS011;7737;51.578;7.268;2023-08-06T00:55:28;13.30;;;12.07;;
15271;SDS011;7737;51.578;7.268;2023-08-06T00:57:56;13.35;;;11.95;;
15271;SDS011;7737;51.578;7.268;2023-08-06T01:00:23;11.98;;;10.57;;
15271;SDS011;7737;51.578;7.268;2023-08-06T01:02:50;10.98;;;9.07;;
15271;SDS011;7737;51.578;7.268;2023-08-06T01:05:17;10.30;;;9.05;;
15271;SDS011;7737;51.578;7.268;2023-08-06T01:07:48;10.20;;;8.30;;
15271;SDS011;7737;51.578;7.268;2023-08-06T01:10:33;7.85;;;7.15;;
15271;SDS011;7737;51.578;7.268;2023-08-06T01:13:15;7.72;;;7.03;;
15271;SDS011;7737;51.578;7.268;2023-08-06T01:15:46;11.43;;;8.52;;
15271;SDS011;7737;51.578;7.268;2023-08-06T01:18:16;10.95;;;8.63;;
15271;SDS011;7737;51.578;7.268;2023-08-06T01:20:44;9.32;;;7.57;;
15271;SDS011;7737;51.578;7.268;2023-08-06T01:23:10;8.68;;;7.32;;
15271;SDS011;7737;51.578;7.268;2023-08-06T01:25:40;9.45;;;7.43;;
15271;SDS011;7737;51.578;7.268;2023-08-06T01:28:15;12.05;;;7.32;;
15271;SDS011;7737;51.578;7.268;2023-08-06T01:30:49;7.85;;;6.95;;
15271;SDS011;7737;51.578;7.268;2023-08-06T01:33:19;9.07;;;6.60;;
15271;SDS011;7737;51.578;7.268;2023-08-06T01:35:48;7.68;;;6.97;;
15271;SDS011;7737;51.578;7.268;2023-08-06T01:38:16;8.90;;;7.10;;
15271;SDS011;7737;51.578;7.268;2023-08-06T01:40:43;8.60;;;7.60;;
15271;SDS011;7737;51.578;7.268;2023-08-06T01:43:09;9.50;;;7.55;;
15271;SDS011;7737;51.578;7.268;2023-08-06T01:45:36;9.95;;;7.25;;
15271;SDS011;7737;51.578;7.268;2023-08-06T01:48:03;7.22;;;6.60;;
15271;SDS011;7737;51.578;7.268;2023-08-06T01:50:29;9.80;;;6.72;;
15271;SDS011;7737;51.578;7.268;2023-08-06T01:52:57;9.07;;;7.57;;
15271;SDS011;7737;51.578;7.268;2023-08-06T01:55:24;8.00;;;7.22;;
15271;SDS011;7737;51.578;7.268;2023-08-06T01:57:50;6.32;;;5.72;;
15271;SDS011;7737;51.578;7.268;2023-08-06T02:00:17;6.65;;;6.03;;
15271;SDS011;7737;51.578;7.268;2023-08-06T02:02:44;8.70;;;6.40;;
15271;SDS011;7737;51.578;7.268;2023-08-06T02:05:10;6.90;;;5.57;;
15271;SDS011;7737;51.578;7.268;2023-08-06T02:07:37;8.70;;;6.10;;
15271;SDS011;7737;51.578;7.268;2023-08-06T02:10:05;7.07;;;5.90;;
15271;SDS011;7737;51.578;7.268;2023-08-06T02:12:32;7.38;;;6.00;;
15271;SDS011;7737;51.578;7.268;2023-08-06T02:14:59;9.30;;;6.40;;
15271;SDS011;7737;51.578;7.268;2023-08-06T02:17:25;7.25;;;5.88;;
15271;SDS011;7737;51.578;7.268;2023-08-06T02:19:52;6.97;;;5.80;;
15271;SDS011;7737;51.578;7.268;2023-08-06T02:22:18;6.47;;;5.78;;
15271;SDS011;7737;51.578;7.268;2023-08-06T02:24:45;6.18;;;5.55;;
15271;SDS011;7737;51.578;7.268;2023-08-06T02:27:13;7.70;;;5.43;;
15271;SDS011;7737;51.578;7.268;2023-08-06T02:29:39;7.05;;;5.80;;
15271;SDS011;7737;51.578;7.268;2023-08-06T02:32:07;9.13;;;5.28;;
15271;SDS011;7737;51.578;7.268;2023-08-06T02:34:33;7.28;;;5.13;;
15271;SDS011;7737;51.578;7.268;2023-08-06T02:37:00;5.82;;;5.30;;
15271;SDS011;7737;51.578;7.268;2023-08-06T02:39:26;5.97;;;5.38;;
15271;SDS011;7737;51.578;7.268;2023-08-06T02:41:53;6.63;;;5.30;;
15271;SDS011;7737;51.578;7.268;2023-08-06T02:44:21;6.93;;;4.95;;
15271;SDS011;7737;51.578;7.268;2023-08-06T02:46:47;7.43;;;5.70;;
15271;SDS011;7737;51.578;7.268;2023-08-06T02:49:14;5.97;;;4.80;;
15271;SDS011;7737;51.578;7.268;2023-08-06T02:51:40;5.90;;;4.82;;
15271;SDS011;7737;51.578;7.268;2023-08-06T02:54:07;6.00;;;5.40;;
15271;SDS011;7737;51.578;7.268;2023-08-06T02:56:33;5.18;;;4.70;;
15271;SDS011;7737;51.578;7.268;2023-08-06T02:59:00;7.00;;;5.45;;
15271;SDS011;7737;51.578;7.268;2023-08-06T03:01:28;6.80;;;5.28;;
15271;SDS011;7737;51.578;7.268;2023-08-06T03:03:54;6.82;;;4.85;;
15271;SDS011;7737;51.578;7.268;2023-08-06T03:06:21;5.75;;;5.10;;
15271;SDS011;7737;51.578;7.268;2023-08-06T03:08:47;5.43;;;4.93;;
15271;SDS011;7737;51.578;7.268;2023-08-06T03:11:14;6.40;;;4.93;;
15271;SDS011;7737;51.578;7.268;2023-08-06T03:13:41;5.72;;;4.75;;
15271;SDS011;7737;51.578;7.268;2023-08-06T03:16:07;5.60;;;5.10;;
15271;SDS011;7737;51.578;7.268;2023-08-06T03:18:35;5.75;;;5.00;;
15271;SDS011;7737;51.578;7.268;2023-08-06T03:21:02;6.15;;;4.75;;
15271;SDS011;7737;51.578;7.268;2023-08-06T03:23:29;5.30;;;4.80;;
15271;SDS011;7737;51.578;7.268;2023-08-06T03:25:55;5.68;;;4.40;;
15271;SDS011;7737;51.578;7.268;2023-08-06T03:28:22;5.47;;;4.85;;
15271;SDS011;7737;51.578;7.268;2023-08-06T03:30:48;6.63;;;4.70;;
15271;SDS011;7737;51.578;7.268;2023-08-06T03:33:25;9.23;;;5.07;;
15271;SDS011;7737;51.578;7.268;2023-08-06T03:35:53;5.50;;;4.82;;
15271;SDS011;7737;51.578;7.268;2023-08-06T03:38:19;5.35;;;4.85;;
15271;SDS011;7737;51.578;7.268;2023-08-06T03:40:46;5.53;;;4.88;;
15271;SDS011;7737;51.578;7.268;2023-08-06T03:43:12;8.40;;;5.28;;
15271;SDS011;7737;51.578;7.268;2023-08-06T03:45:39;5.70;;;5.10;;
15271;SDS011;7737;51.578;7.268;2023-08-06T03:48:06;8.48;;;5.40;;
15271;SDS011;7737;51.578;7.268;2023-08-06T03:50:33;5.40;;;4.90;;
15271;SDS011;7737;51.578;7.268;2023-08-06T03:53:01;6.93;;;4.97;;
15271;SDS011;7737;51.578;7.268;2023-08-06T03:55:28;6.07;;;5.45;;
15271;SDS011;7737;51.578;7.268;2023-08-06T03:57:54;6.78;;;5.40;;
15271;SDS011;7737;51.578;7.268;2023-08-06T04:00:21;6.90;;;5.30;;
15271;SDS011;7737;51.578;7.268;2023-08-06T04:02:47;7.47;;;5.13;;
15271;SDS011;7737;51.578;7.268;2023-08-06T04:05:15;8.00;;;5.20;;
15271;SDS011;7737;51.578;7.268;2023-08-06T04:07:42;9.18;;;5.32;;
15271;SDS011;7737;51.578;7.268;2023-08-06T04:10:10;10.93;;;5.20;;
15271;SDS011;7737;51.578;7.268;2023-08-06T04:12:36;8.25;;;5.65;;
15271;SDS011;7737;51.578;7.268;2023-08-06T04:15:04;7.07;;;5.60;;
15271;SDS011;7737;51.578;7.268;2023-08-06T04:17:32;8.40;;;6.10;;
15271;SDS011;7737;51.578;7.268;2023-08-06T04:19:58;6.78;;;5.55;;
15271;SDS011;7737;51.578;7.268;2023-08-06T04:22:25;7.80;;;6.10;;
15271;SDS011;7737;51.578;7.268;2023-08-06T04:24:52;6.03;;;5.22;;
15271;SDS011;7737;51.578;7.268;2023-08-06T04:27:19;10.27;;;5.75;;
15271;SDS011;7737;51.578;7.268;2023-08-06T04:29:46;6.22;;;5.63;;
15271;SDS011;7737;51.578;7.268;2023-08-06T04:32:13;6.32;;;5.18;;
15271;SDS011;7737;51.578;7.268;2023-08-06T04:34:39;8.98;;;5.47;;
15271;SDS011;7737;51.578;7.268;2023-08-06T04:37:06;8.07;;;5.28;;
15271;SDS011;7737;51.578;7.268;2023-08-06T04:39:32;6.13;;;4.90;;
15271;SDS011;7737;51.578;7.268;2023-08-06T04:41:59;5.38;;;4.47;;
15271;SDS011;7737;51.578;7.268;2023-08-06T04:44:27;7.13;;;5.22;;
15271;SDS011;7737;51.578;7.268;2023-08-06T04:46:53;6.18;;;5.55;;
15271;SDS011;7737;51.578;7.268;2023-08-06T04:49:20;8.02;;;6.03;;
15271;SDS011;7737;51.578;7.268;2023-08-06T04:51:47;7.05;;;5.88;;
15271;SDS011;7737;51.578;7.268;2023-08-06T04:54:13;5.80;;;5.28;;
15271;SDS011;7737;51.578;7.268;2023-08-06T04:56:40;6.32;;;5.65;;
15271;SDS011;7737;51.578;7.268;2023-08-06T04:59:07;7.68;;;5.68;;
15271;SDS011;7737;51.578;7.268;2023-08-06T05:01:35;6.93;;;6.15;;
15271;SDS011;7737;51.578;7.268;2023-08-06T05:04:01;8.57;;;7.30;;
15271;SDS011;7737;51.578;7.268;2023-08-06T05:06:28;8.73;;;6.88;;
15271;SDS011;7737;51.578;7.268;2023-08-06T05:08:54;8.73;;;7.05;;
15271;SDS011;7737;51.578;7.268;2023-08-06T05:11:21;7.32;;;6.72;;
15271;SDS011;7737;51.578;7.268;2023-08-06T05:13:49;6.80;;;6.18;;
15271;SDS011;7737;51.578;7.268;2023-08-06T05:16:15;7.88;;;6.32;;
15271;SDS011;7737;51.578;7.268;2023-08-06T05:18:43;7.40;;;6.65;;
15271;SDS011;7737;51.578;7.268;2023-08-06T05:21:10;7.03;;;6.32;;
15271;SDS011;7737;51.578;7.268;2023-08-06T05:23:36;7.18;;;6.40;;
15271;SDS011;7737;51.578;7.268;2023-08-06T05:26:03;8.23;;;7.22;;
15271;SDS011;7737;51.578;7.268;2023-08-06T05:28:29;7.82;;;6.53;;
15271;SDS011;7737;51.578;7.268;2023-08-06T05:30:56;7.47;;;6.70;;
15271;SDS011;7737;51.578;7.268;2023-08-06T05:33:23;7.88;;;6.72;;
15271;SDS011;7737;51.578;7.268;2023-08-06T05:35:51;9.10;;;7.22;;
15271;SDS011;7737;51.578;7.268;2023-08-06T05:38:18;7.90;;;7.10;;
15271;SDS011;7737;51.578;7.268;2023-08-06T05:40:44;9.57;;;6.85;;
15271;SDS011;7737;51.578;7.268;2023-08-06T05:43:11;7.90;;;7.10;;
15271;SDS011;7737;51.578;7.268;2023-08-06T05:45:37;7.15;;;6.10;;
15271;SDS011;7737;51.578;7.268;2023-08-06T05:48:04;7.13;;;6.43;;
15271;SDS011;7737;51.578;7.268;2023-08-06T05:50:31;8.32;;;5.50;;
15271;SDS011;7737;51.578;7.268;2023-08-06T05:52:58;6.13;;;5.57;;
15271;SDS011;7737;51.578;7.268;2023-08-06T05:55:25;7.88;;;5.68;;
15271;SDS011;7737;51.578;7.268;2023-08-06T05:57:52;10.38;;;6.13;;
15271;SDS011;7737;51.578;7.268;2023-08-06T06:00:18;6.20;;;5.40;;
15271;SDS011;7737;51.578;7.268;2023-08-06T06:02:47;5.57;;;5.07;;
15271;SDS011;7737;51.578;7.268;2023-08-06T06:05:13;7.13;;;5.13;;
15271;SDS011;7737;51.578;7.268;2023-08-06T06:07:40;6.00;;;4.93;;
15271;SDS011;7737;51.578;7.268;2023-08-06T06:10:08;6.07;;;5.20;;
15271;SDS011;7737;51.578;7.268;2023-08-06T06:12:35;6.05;;;5.15;;
15271;SDS011;7737;51.578;7.268;2023-08-06T06:15:02;5.60;;;4.80;;
15271;SDS011;7737;51.578;7.268;2023-08-06T06:17:29;6.40;;;4.95;;
15271;SDS011;7737;51.578;7.268;2023-08-06T06:19:55;6.88;;;4.70;;
15271;SDS011;7737;51.578;7.268;2023-08-06T06:22:22;6.65;;;4.40;;
15271;SDS011;7737;51.578;7.268;2023-08-06T06:24:48;4.95;;;4.15;;
15271;SDS011;7737;51.578;7.268;2023-08-06T06:27:16;4.65;;;4.25;;
15271;SDS011;7737;51.578;7.268;2023-08-06T06:29:43;4.78;;;4.32;;
15271;SDS011;7737;51.578;7.268;2023-08-06T06:32:09;5.15;;;4.10;;
15271;SDS011;7737;51.578;7.268;2023-08-06T06:34:36;6.38;;;4.22;;
15271;SDS011;7737;51.578;7.268;2023-08-06T06:37:03;4.72;;;4.22;;
15271;SDS011;7737;51.578;7.268;2023-08-06T06:39:30;4.50;;;3.70;;
15271;SDS011;7737;51.578;7.268;2023-08-06T06:41:56;5.63;;;3.72;;
15271;SDS011;7737;51.578;7.268;2023-08-06T06:44:24;6.40;;;3.70;;
15271;SDS011;7737;51.578;7.268;2023-08-06T06:46:51;5.18;;;3.33;;
15271;SDS011;7737;51.578;7.268;2023-08-06T06:49:17;3.35;;;2.97;;
15271;SDS011;7737;51.578;7.268;2023-08-06T06:51:44;3.72;;;2.90;;
15271;SDS011;7737;51.578;7.268;2023-08-06T06:54:11;4.90;;;2.80;;
15271;SDS011;7737;51.578;7.268;2023-08-06T06:56:37;3.42;;;3.13;;
15271;SDS011;7737;51.578;7.268;2023-08-06T06:59:04;7.97;;;3.38;;
15271;SDS011;7737;51.578;7.268;2023-08-06T07:01:32;3.50;;;2.60;;
15271;SDS011;7737;51.578;7.268;2023-08-06T07:03:59;2.92;;;2.33;;
15271;SDS011;7737;51.578;7.268;2023-08-06T07:06:29;5.68;;;2.60;;
15271;SDS011;7737;51.578;7.268;2023-08-06T07:08:56;4.25;;;2.72;;
15271;SDS011;7737;51.578;7.268;2023-08-06T07:11:23;3.17;;;2.00;;
15271;SDS011;7737;51.578;7.268;2023-08-06T07:13:49;4.47;;;2.30;;
15271;SDS011;7737;51.578;7.268;2023-08-06T07:16:22;2.30;;;2.10;;
15271;SDS011;7737;51.578;7.268;2023-08-06T07:18:50;2.60;;;2.20;;
15271;SDS011;7737;51.578;7.268;2023-08-06T07:21:17;2.55;;;2.28;;
15271;SDS011;7737;51.578;7.268;2023-08-06T07:23:44;3.40;;;2.20;;
15271;SDS011;7737;51.578;7.268;2023-08-06T07:26:10;3.53;;;2.25;;
15271;SDS011;7737;51.578;7.268;2023-08-06T07:28:37;3.45;;;2.20;;
15271;SDS011;7737;51.578;7.268;2023-08-06T07:31:03;3.00;;;2.30;;
15271;SDS011;7737;51.578;7.268;2023-08-06T07:33:30;3.22;;;2.25;;
15271;SDS011;7737;51.578;7.268;2023-08-06T07:35:58;3.00;;;1.98;;
15271;SDS011;7737;51.578;7.268;2023-08-06T07:38:25;3.35;;;2.55;;
15271;SDS011;7737;51.578;7.268;2023-08-06T07:40:53;3.67;;;2.22;;
15271;SDS011;7737;51.578;7.268;2023-08-06T07:43:20;3.08;;;2.15;;
15271;SDS011;7737;51.578;7.268;2023-08-06T07:45:46;4.13;;;2.30;;
15271;SDS011;7737;51.578;7.268;2023-08-06T07:48:13;3.47;;;2.22;;
15271;SDS011;7737;51.578;7.268;2023-08-06T07:50:39;4.03;;;2.40;;
15271;SDS011;7737;51.578;7.268;2023-08-06T07:53:07;4.35;;;2.30;;
15271;SDS011;7737;51.578;7.268;2023-08-06T07:55:34;2.88;;;2.10;;
15271;SDS011;7737;51.578;7.268;2023-08-06T07:58:01;3.38;;;2.10;;
15271;SDS011;7737;51.578;7.268;2023-08-06T08:00:27;4.10;;;2.20;;
15271;SDS011;7737;51.578;7.268;2023-08-06T08:02:54;3.78;;;2.20;;
15271;SDS011;7737;51.578;7.268;2023-08-06T08:05:20;5.47;;;2.20;;
15271;SDS011;7737;51.578;7.268;2023-08-06T08:07:47;3.63;;;3.00;;
15271;SDS011;7737;51.578;7.268;2023-08-06T08:10:15;4.95;;;2.15;;
15271;SDS011;7737;51.578;7.268;2023-08-06T08:12:41;3.85;;;2.38;;
15271;SDS011;7737;51.578;7.268;2023-08-06T08:15:08;2.53;;;2.08;;
15271;SDS011;7737;51.578;7.268;2023-08-06T08:17:35;4.25;;;2.38;;
15271;SDS011;7737;51.578;7.268;2023-08-06T08:20:03;2.20;;;1.98;;
15271;SDS011;7737;51.578;7.268;2023-08-06T08:22:30;3.42;;;2.40;;
15271;SDS011;7737;51.578;7.268;2023-08-06T08:24:56;2.78;;;1.90;;
15271;SDS011;7737;51.578;7.268;2023-08-06T08:27:24;4.32;;;2.42;;
15271;SDS011;7737;51.578;7.268;2023-08-06T08:29:51;3.28;;;2.17;;
15271;SDS011;7737;51.578;7.268;2023-08-06T08:32:17;3.20;;;2.38;;
15271;SDS011;7737;51.578;7.268;2023-08-06T08:34:44;4.53;;;2.70;;
15271;SDS011;7737;51.578;7.268;2023-08-06T08:37:11;4.20;;;2.58;;
15271;SDS011;7737;51.578;7.268;2023-08-06T08:39:37;3.85;;;2.83;;
15271;SDS011;7737;51.578;7.268;2023-08-06T08:42:04;3.78;;;2.95;;
15271;SDS011;7737;51.578;7.268;2023-08-06T08:44:33;4.53;;;2.95;;
15271;SDS011;7737;51.578;7.268;2023-08-06T08:47:04;4.25;;;3.08;;
15271;SDS011;7737;51.578;7.268;2023-08-06T08:49:31;4.50;;;2.80;;
15271;SDS011;7737;51.578;7.268;2023-08-06T08:52:00;6.47;;;2.85;;
15271;SDS011;7737;51.578;7.268;2023-08-06T08:54:30;3.90;;;2.88;;
15271;SDS011;7737;51.578;7.268;2023-08-06T08:56:58;3.92;;;2.67;;
15271;SDS011;7737;51.578;7.268;2023-08-06T08:59:25;4.40;;;2.60;;
15271;SDS011;7737;51.578;7.268;2023-08-06T09:01:53;3.53;;;2.53;;
15271;SDS011;7737;51.578;7.268;2023-08-06T09:04:21;2.90;;;2.40;;
15271;SDS011;7737;51.578;7.268;2023-08-06T09:06:50;3.10;;;2.40;;
15271;SDS011;7737;51.578;7.268;2023-08-06T09:09:19;3.70;;;2.80;;
15271;SDS011;7737;51.578;7.268;2023-08-06T09:11:51;6.18;;;3.28;;
15271;SDS011;7737;51.578;7.268;2023-08-06T09:14:18;5.68;;;3.00;;
15271;SDS011;7737;51.578;7.268;2023-08-06T09:16:45;4.53;;;3.20;;
15271;SDS011;7737;51.578;7.268;2023-08-06T09:19:14;7.57;;;3.75;;
15271;SDS011;7737;51.578;7.268;2023-08-06T09:21:42;6.28;;;3.67;;
15271;SDS011;7737;51.578;7.268;2023-08-06T09:24:09;5.93;;;3.92;;
15271;SDS011;7737;51.578;7.268;2023-08-06T09:26:37;5.65;;;4.25;;
15271;SDS011;7737;51.578;7.268;2023-08-06T09:29:07;6.30;;;4.50;;
15271;SDS011;7737;51.578;7.268;2023-08-06T09:31:40;5.05;;;4.00;;
15271;SDS011;7737;51.578;7.268;2023-08-06T09:34:10;4.45;;;3.80;;
15271;SDS011;7737;51.578;7.268;2023-08-06T09:36:40;3.85;;;3.45;;
15271;SDS011;7737;51.578;7.268;2023-08-06T09:39:12;5.70;;;3.80;;
15271;SDS011;7737;51.578;7.268;2023-08-06T09:41:39;5.35;;;3.92;;
15271;SDS011;7737;51.578;7.268;2023-08-06T09:44:09;4.82;;;4.22;;
15271;SDS011;7737;51.578;7.268;2023-08-06T09:46:42;4.85;;;3.97;;
15271;SDS011;7737;51.578;7.268;2023-08-06T09:49:08;4.40;;;4.00;;
15271;SDS011;7737;51.578;7.268;2023-08-06T09:51:36;4.25;;;3.85;;
15271;SDS011;7737;51.578;7.268;2023-08-06T09:54:06;4.45;;;4.05;;
15271;SDS011;7737;51.578;7.268;2023-08-06T09:56:34;4.10;;;3.70;;
15271;SDS011;7737;51.578;7.268;2023-08-06T09:59:03;5.10;;;4.35;;
15271;SDS011;7737;51.578;7.268;2023-08-06T10:01:31;4.82;;;4.40;;
15271;SDS011;7737;51.578;7.268;2023-08-06T10:03:59;4.65;;;4.25;;
15271;SDS011;7737;51.578;7.268;2023-08-06T10:06:26;5.07;;;4.65;;
15271;SDS011;7737;51.578;7.268;2023-08-06T10:08:56;5.28;;;4.78;;
15271;SDS011;7737;51.578;7.268;2023-08-06T10:11:24;5.30;;;4.80;;
15271;SDS011;7737;51.578;7.268;2023-08-06T10:13:52;5.68;;;4.40;;
15271;SDS011;7737;51.578;7.268;2023-08-06T10:16:21;5.30;;;4.80;;
15271;SDS011;7737;51.578;7.268;2023-08-06T10:18:48;5.75;;;4.57;;
15271;SDS011;7737;51.578;7.268;2023-08-06T10:21:16;5.57;;;4.65;;
15271;SDS011;7737;51.578;7.268;2023-08-06T10:23:43;5.38;;;4.97;;
15271;SDS011;7737;51.578;7.268;2023-08-06T10:26:09;5.03;;;4.57;;
15271;SDS011;7737;51.578;7.268;2023-08-06T10:28:38;5.50;;;5.00;;
15271;SDS011;7737;51.578;7.268;2023-08-06T10:31:05;6.13;;;5.53;;
15271;SDS011;7737;51.578;7.268;2023-08-06T10:33:41;6.03;;;4.68;;
15271;SDS011;7737;51.578;7.268;2023-08-06T10:36:09;4.53;;;4.00;;
15271;SDS011;7737;51.578;7.268;2023-08-06T10:38:43;4.40;;;4.00;;
15271;SDS011;7737;51.578;7.268;2023-08-06T10:41:15;5.32;;;4.72;;
15271;SDS011;7737;51.578;7.268;2023-08-06T10:43:44;5.22;;;4.07;;
15271;SDS011;7737;51.578;7.268;2023-08-06T10:46:21;3.40;;;2.90;;
15271;SDS011;7737;51.578;7.268;2023-08-06T10:48:48;3.25;;;2.95;;
15271;SDS011;7737;51.578;7.268;2023-08-06T10:51:15;3.10;;;2.80;;
15271;SDS011;7737;51.578;7.268;2023-08-06T10:53:42;2.85;;;2.40;;
15271;SDS011;7737;51.578;7.268;2023-08-06T10:56:13;4.15;;;2.50;;
15271;SDS011;7737;51.578;7.268;2023-08-06T10:58:40;3.35;;;2.25;;
15271;SDS011;7737;51.578;7.268;2023-08-06T11:01:08;2.80;;;2.22;;
15271;SDS011;7737;51.578;7.268;2023-08-06T11:03:35;3.22;;;2.40;;
15271;SDS011;7737;51.578;7.268;2023-08-06T11:06:02;2.83;;;2.35;;
15271;SDS011;7737;51.578;7.268;2023-08-06T11:08:32;3.03;;;2.47;;
15271;SDS011;7737;51.578;7.268;2023-08-06T11:11:07;4.35;;;2.40;;
15271;SDS011;7737;51.578;7.268;2023-08-06T11:13:35;2.70;;;2.50;;
15271;SDS011;7737;51.578;7.268;2023-08-06T11:16:02;3.45;;;2.70;;
15271;SDS011;7737;51.578;7.268;2023-08-06T11:18:31;4.55;;;2.63;;
15271;SDS011;7737;51.578;7.268;2023-08-06T11:20:58;3.85;;;2.60;;
15271;SDS011;7737;51.578;7.268;2023-08-06T11:23:26;3.25;;;2.50;;
15271;SDS011;7737;51.578;7.268;2023-08-06T11:25:53;4.93;;;2.50;;
15271;SDS011;7737;51.578;7.268;2023-08-06T11:28:20;2.45;;;2.20;;
15271;SDS011;7737;51.578;7.268;2023-08-06T11:30:47;2.50;;;2.30;;
15271;SDS011;7737;51.578;7.268;2023-08-06T11:33:14;2.80;;;2.60;;
15271;SDS011;7737;51.578;7.268;2023-08-06T11:35:42;2.63;;;2.00;;
15271;SDS011;7737;51.578;7.268;2023-08-06T11:38:08;2.40;;;2.20;;
15271;SDS011;7737;51.578;7.268;2023-08-06T11:40:35;2.80;;;2.40;;
15271;SDS011;7737;51.578;7.268;2023-08-06T11:43:02;2.67;;;2.47;;
15271;SDS011;7737;51.578;7.268;2023-08-06T11:45:28;2.80;;;2.47;;
15271;SDS011;7737;51.578;7.268;2023-08-06T11:47:55;2.83;;;2.63;;
15271;SDS011;7737;51.578;7.268;2023-08-06T11:50:22;2.60;;;2.40;;
15271;SDS011;7737;51.578;7.268;2023-08-06T11:52:52;2.65;;;2.45;;
15271;SDS011;7737;51.578;7.268;2023-08-06T11:55:22;3.42;;;3.13;;
15271;SDS011;7737;51.578;7.268;2023-08-06T11:57:49;5.00;;;3.20;;
15271;SDS011;7737;51.578;7.268;2023-08-06T12:00:16;4.07;;;3.67;;
15271;SDS011;7737;51.578;7.268;2023-08-06T12:02:45;3.88;;;3.55;;
15271;SDS011;7737;51.578;7.268;2023-08-06T12:05:14;3.45;;;3.15;;
15271;SDS011;7737;51.578;7.268;2023-08-06T12:07:42;4.10;;;3.80;;
15271;SDS011;7737;51.578;7.268;2023-08-06T12:10:11;4.65;;;4.25;;
15271;SDS011;7737;51.578;7.268;2023-08-06T12:12:39;5.25;;;4.75;;
15271;SDS011;7737;51.578;7.268;2023-08-06T12:15:06;5.32;;;4.93;;
15271;SDS011;7737;51.578;7.268;2023-08-06T12:17:34;6.30;;;5.80;;
15271;SDS011;7737;51.578;7.268;2023-08-06T12:20:01;6.65;;;6.07;;
15271;SDS011;7737;51.578;7.268;2023-08-06T12:22:29;8.43;;;7.80;;
15271;SDS011;7737;51.578;7.268;2023-08-06T12:24:59;9.15;;;8.55;;
15271;SDS011;7737;51.578;7.268;2023-08-06T12:27:28;8.80;;;8.10;;
15271;SDS011;7737;51.578;7.268;2023-08-06T12:29:55;9.30;;;8.60;;
15271;SDS011;7737;51.578;7.268;2023-08-06T12:32:22;8.10;;;7.40;;
15271;SDS011;7737;51.578;7.268;2023-08-06T12:34:48;5.88;;;5.47;;
15271;SDS011;7737;51.578;7.268;2023-08-06T12:37:15;5.60;;;5.05;;
15271;SDS011;7737;51.578;7.268;2023-08-06T12:39:41;4.60;;;4.30;;
15271;SDS011;7737;51.578;7.268;2023-08-06T12:42:08;4.07;;;3.75;;
15271;SDS011;7737;51.578;7.268;2023-08-06T12:44:37;3.78;;;3.47;;
15271;SDS011;7737;51.578;7.268;2023-08-06T12:47:03;4.07;;;3.72;;
15271;SDS011;7737;51.578;7.268;2023-08-06T12:49:30;3.78;;;3.47;;
15271;SDS011;7737;51.578;7.268;2023-08-06T12:51:59;2.33;;;2.13;;
15271;SDS011;7737;51.578;7.268;2023-08-06T12:54:26;1.77;;;1.67;;
15271;SDS011;7737;51.578;7.268;2023-08-06T12:56:52;2.13;;;1.55;;
15271;SDS011;7737;51.578;7.268;2023-08-06T12:59:19;1.77;;;1.58;;
15271;SDS011;7737;51.578;7.268;2023-08-06T13:01:47;2.20;;;1.40;;
15271;SDS011;7737;51.578;7.268;2023-08-06T13:04:14;2.03;;;1.83;;
15271;SDS011;7737;51.578;7.268;2023-08-06T13:06:40;2.47;;;2.28;;
15271;SDS011;7737;51.578;7.268;2023-08-06T13:09:07;2.78;;;1.52;;
15271;SDS011;7737;51.578;7.268;2023-08-06T13:11:34;3.05;;;1.00;;
15271;SDS011;7737;51.578;7.268;2023-08-06T13:14:04;1.27;;;0.90;;
15271;SDS011;7737;51.578;7.268;2023-08-06T13:16:32;1.95;;;1.10;;
15271;SDS011;7737;51.578;7.268;2023-08-06T13:19:00;1.23;;;1.13;;
15271;SDS011;7737;51.578;7.268;2023-08-06T13:21:32;1.65;;;1.00;;
15271;SDS011;7737;51.578;7.268;2023-08-06T13:24:00;0.85;;;0.85;;
15271;SDS011;7737;51.578;7.268;2023-08-06T13:26:27;1.63;;;1.02;;
15271;SDS011;7737;51.578;7.268;2023-08-06T13:28:54;1.60;;;1.05;;
15271;SDS011;7737;51.578;7.268;2023-08-06T13:31:21;3.20;;;2.40;;
15271;SDS011;7737;51.578;7.268;2023-08-06T13:33:48;2.55;;;2.35;;
15271;SDS011;7737;51.578;7.268;2023-08-06T13:36:16;1.83;;;1.20;;
15271;SDS011;7737;51.578;7.268;2023-08-06T13:38:43;1.58;;;1.30;;
15271;SDS011;7737;51.578;7.268;2023-08-06T13:41:10;4.03;;;3.10;;
15271;SDS011;7737;51.578;7.268;2023-08-06T13:43:36;2.30;;;1.90;;
15271;SDS011;7737;51.578;7.268;2023-08-06T13:46:03;3.33;;;1.40;;
15271;SDS011;7737;51.578;7.268;2023-08-06T13:48:29;3.53;;;2.15;;
15271;SDS011;7737;51.578;7.268;2023-08-06T13:50:56;2.60;;;2.40;;
15271;SDS011;7737;51.578;7.268;2023-08-06T13:53:24;3.60;;;3.13;;
15271;SDS011;7737;51.578;7.268;2023-08-06T13:55:55;2.30;;;2.10;;
15271;SDS011;7737;51.578;7.268;2023-08-06T13:58:22;4.43;;;4.03;;
15271;SDS011;7737;51.578;7.268;2023-08-06T14:00:48;3.10;;;2.17;;
15271;SDS011;7737;51.578;7.268;2023-08-06T14:03:18;1.60;;;1.30;;
15271;SDS011;7737;51.578;7.268;2023-08-06T14:05:44;3.83;;;3.42;;
15271;SDS011;7737;51.578;7.268;2023-08-06T14:08:11;4.70;;;3.22;;
15271;SDS011;7737;51.578;7.268;2023-08-06T14:10:40;4.25;;;3.88;;
15271;SDS011;7737;51.578;7.268;2023-08-06T14:13:06;2.42;;;1.70;;
15271;SDS011;7737;51.578;7.268;2023-08-06T14:15:33;1.80;;;1.70;;
15271;SDS011;7737;51.578;7.268;2023-08-06T14:18:00;1.27;;;1.00;;
15271;SDS011;7737;51.578;7.268;2023-08-06T14:20:26;2.38;;;1.50;;
15271;SDS011;7737;51.578;7.268;2023-08-06T14:22:53;1.27;;;1.17;;
15271;SDS011;7737;51.578;7.268;2023-08-06T14:25:19;2.05;;;1.80;;
15271;SDS011;7737;51.578;7.268;2023-08-06T14:27:48;2.13;;;1.20;;
15271;SDS011;7737;51.578;7.268;2023-08-06T14:30:14;1.83;;;1.73;;
15271;SDS011;7737;51.578;7.268;2023-08-06T14:32:41;1.15;;;1.05;;
15271;SDS011;7737;51.578;7.268;2023-08-06T14:35:08;1.48;;;1.38;;
15271;SDS011;7737;51.578;7.268;2023-08-06T14:37:34;2.28;;;1.42;;
15271;SDS011;7737;51.578;7.268;2023-08-06T14:40:01;1.50;;;1.33;;
15271;SDS011;7737;51.578;7.268;2023-08-06T14:42:28;1.55;;;1.45;;
15271;SDS011;7737;51.578;7.268;2023-08-06T14:44:56;1.25;;;1.15;;
15271;SDS011;7737;51.578;7.268;2023-08-06T14:47:23;1.70;;;1.60;;
15271;SDS011;7737;51.578;7.268;2023-08-06T14:49:49;1.63;;;1.10;;
15271;SDS011;7737;51.578;7.268;2023-08-06T14:52:16;2.15;;;1.48;;
15271;SDS011;7737;51.578;7.268;2023-08-06T14:54:42;1.27;;;1.05;;
15271;SDS011;7737;51.578;7.268;2023-08-06T14:57:09;2.20;;;2.00;;
15271;SDS011;7737;51.578;7.268;2023-08-06T14:59:37;1.50;;;1.40;;
15271;SDS011;7737;51.578;7.268;2023-08-06T15:02:06;1.80;;;1.70;;